Time;durP1;ratioP1;P1;durP2;ratioP2;P2;SDS_P1;SDS_P2;PMS_P1;PMS_P2;Temp;Humidity;BMP_temperature;BMP_pressure;BME280_temperature;BME280_humidity;BME280_pressure;Samples;Min_cycle;Max_cycle;Signal;HPM_P1;HPM_P2
2021/06/05 00:00:21;;;;;;;4.80;4.47;;;;;23.80;100794.00;;;;2034489;29;20253;-68
2021/06/05 00:01:30;;;;;;;4.30;4.00;;;;;23.90;100795.00;;;;2042270;28;20447;-68
2021/06/05 00:02:30;;;;;;;4.88;4.55;;;;;23.90;100788.00;;;;2043348;28;20232;-68
2021/06/05 00:03:31;;;;;;;4.57;4.27;;;;;23.90;100788.00;;;;2043119;28;20215;-68
2021/06/05 00:04:31;;;;;;;4.40;4.10;;;;;23.90;100785.00;;;;2043018;28;20263;-68
2021/06/05 00:05:38;;;;;;;4.53;4.23;;;;;23.90;100777.00;;;;2042243;29;20918;-68
2021/06/05 00:06:39;;;;;;;4.18;3.88;;;;;23.90;100782.00;;;;2034990;29;20699;-68
2021/06/05 00:07:39;;;;;;;5.40;5.00;;;;;23.90;100781.00;;;;2042486;29;20243;-68
2021/06/05 00:08:39;;;;;;;4.80;4.40;;;;;23.90;100785.00;;;;2043589;28;20278;-68
2021/06/05 00:09:40;;;;;;;4.33;4.03;;;;;23.90;100781.00;;;;2043051;29;20232;-68
2021/06/05 00:10:43;;;;;;;4.57;4.28;;;;;23.90;100778.00;;;;2043158;29;20676;-68
2021/06/05 00:11:43;;;;;;;5.10;4.78;;;;;23.90;100781.00;;;;2042896;29;20218;-68
2021/06/05 00:12:44;;;;;;;5.20;4.80;;;;;23.90;100779.00;;;;2035168;29;20332;-68
2021/06/05 00:13:46;;;;;;;4.23;3.93;;;;;23.90;100778.00;;;;2035113;29;20256;-68
2021/06/05 00:14:46;;;;;;;4.47;4.18;;;;;23.90;100777.00;;;;2034913;29;20225;-68
2021/06/05 00:15:47;;;;;;;4.77;4.37;;;;;23.90;100774.00;;;;2034787;29;20304;-68
2021/06/05 00:16:48;;;;;;;4.80;4.50;;;;;23.80;100778.00;;;;2025560;29;20262;-67
2021/06/05 00:17:48;;;;;;;4.60;4.30;;;;;23.90;100776.00;;;;2042224;29;20225;-70
2021/06/05 00:18:49;;;;;;;4.50;4.20;;;;;23.90;100785.00;;;;2042371;29;20249;-68
2021/06/05 00:19:49;;;;;;;4.60;4.30;;;;;23.80;100783.00;;;;2044734;28;20225;-68
2021/06/05 00:20:49;;;;;;;4.67;4.37;;;;;23.90;100791.00;;;;2042705;29;20584;-68
2021/06/05 00:21:50;;;;;;;5.00;4.60;;;;;23.90;100789.00;;;;2037857;29;20209;-68
2021/06/05 00:22:50;;;;;;;4.63;4.33;;;;;23.90;100786.00;;;;2044576;29;20268;-67
2021/06/05 00:23:51;;;;;;;4.43;4.13;;;;;23.90;100790.00;;;;2043125;28;20695;-68
2021/06/05 00:24:51;;;;;;;4.63;4.33;;;;;23.70;100788.00;;;;2043282;28;20217;-68
2021/06/05 00:25:53;;;;;;;4.50;4.20;;;;;23.90;100790.00;;;;2043284;28;20311;-68
2021/06/05 00:26:53;;;;;;;4.47;4.18;;;;;23.90;100786.00;;;;2042789;29;20224;-68
2021/06/05 00:27:54;;;;;;;4.60;4.30;;;;;23.90;100792.00;;;;2043055;29;20236;-68
2021/06/05 00:28:54;;;;;;;4.57;4.27;;;;;23.90;100794.00;;;;2043033;29;20225;-68
2021/06/05 00:29:54;;;;;;;4.80;4.50;;;;;23.90;100787.00;;;;2043069;29;20718;-67
2021/06/05 00:30:55;;;;;;;4.77;4.37;;;;;23.80;100785.00;;;;2043782;28;20223;-68
2021/06/05 00:31:55;;;;;;;4.40;4.10;;;;;23.90;100785.00;;;;2042079;29;20228;-68
2021/06/05 00:32:55;;;;;;;4.30;4.00;;;;;23.90;100786.00;;;;2041280;29;20745;-68
2021/06/05 00:33:56;;;;;;;4.80;4.50;;;;;23.90;100790.00;;;;2042200;29;20720;-68
2021/06/05 00:34:56;;;;;;;5.07;4.77;;;;;23.80;100789.00;;;;2042575;29;20428;-68
2021/06/05 00:35:57;;;;;;;4.40;4.10;;;;;23.90;100784.00;;;;2043079;28;20216;-68
2021/06/05 00:36:57;;;;;;;4.70;4.40;;;;;23.90;100784.00;;;;2042509;29;20245;-68
2021/06/05 00:37:57;;;;;;;4.73;4.43;;;;;23.90;100779.00;;;;2042491;29;20220;-68
2021/06/05 00:38:58;;;;;;;4.70;4.30;;;;;23.90;100781.00;;;;2043739;28;20723;-68
2021/06/05 00:39:58;;;;;;;4.60;4.30;;;;;23.90;100786.00;;;;2043237;29;20331;-71
2021/06/05 00:40:59;;;;;;;4.77;4.37;;;;;23.90;100774.00;;;;2042578;29;20217;-70
2021/06/05 00:41:59;;;;;;;4.63;4.33;;;;;23.90;100784.00;;;;2043576;28;20588;-71
2021/06/05 00:42:59;;;;;;;4.53;4.23;;;;;23.90;100788.00;;;;2043621;28;20225;-71
2021/06/05 00:44:01;;;;;;;4.77;4.47;;;;;23.90;100797.00;;;;2043031;29;20224;-69
2021/06/05 00:45:03;;;;;;;4.43;4.10;;;;;23.90;100784.00;;;;2042487;29;20213;-71
2021/06/05 00:46:03;;;;;;;5.20;4.80;;;;;23.80;100789.00;;;;2042258;28;20221;-71
2021/06/05 00:47:04;;;;;;;4.30;4.00;;;;;23.80;100782.00;;;;2034590;29;20659;-71
2021/06/05 00:48:05;;;;;;;4.70;4.30;;;;;23.80;100785.00;;;;2037083;29;21057;-71
2021/06/05 00:49:06;;;;;;;4.47;4.17;;;;;23.80;100782.00;;;;2034684;29;20712;-71
2021/06/05 00:50:07;;;;;;;4.32;4.10;;;;;23.80;100786.00;;;;2046181;29;20212;-71
2021/06/05 00:51:07;;;;;;;4.30;4.00;;;;;23.80;100784.00;;;;2046473;28;20219;-71
2021/06/05 00:52:09;;;;;;;4.23;3.93;;;;;23.80;100787.00;;;;2038150;29;20754;-71
2021/06/05 00:53:10;;;;;;;4.30;4.00;;;;;23.80;100781.00;;;;2036770;29;20244;-71
2021/06/05 00:54:11;;;;;;;4.73;4.43;;;;;23.80;100762.00;;;;2036189;29;20209;-71
2021/06/05 00:55:13;;;;;;;4.53;4.22;;;;;23.90;100769.00;;;;2036368;29;20261;-71
2021/06/05 00:56:13;;;;;;;4.82;4.53;;;;;23.80;100770.00;;;;2039275;29;20232;-71
2021/06/05 00:57:14;;;;;;;4.80;4.50;;;;;23.90;100780.00;;;;2036168;29;20284;-71
2021/06/05 00:58:15;;;;;;;5.00;4.60;;;;;23.90;100781.00;;;;2043911;29;20221;-71
2021/06/05 00:59:15;;;;;;;4.23;3.93;;;;;23.80;100782.00;;;;2036000;29;20312;-71
2021/06/05 01:00:29;;;;;;;4.53;4.23;;;;;23.80;100792.00;;;;2035978;29;20949;-71
2021/06/05 01:01:30;;;;;;;4.47;4.13;;;;;23.80;100791.00;;;;2045004;29;20216;-71
2021/06/05 01:02:30;;;;;;;4.17;3.87;;;;;23.80;100793.00;;;;2038057;29;20696;-71
2021/06/05 01:03:31;;;;;;;4.90;4.50;;;;;23.80;100791.00;;;;2044365;29;20445;-71
2021/06/05 01:04:31;;;;;;;4.40;4.10;;;;;23.80;100787.00;;;;2036307;29;20217;-71
2021/06/05 01:05:32;;;;;;;4.70;4.40;;;;;23.80;100791.00;;;;2028152;29;20225;-71
2021/06/05 01:06:48;;;;;;;4.70;4.30;;;;;23.80;100785.00;;;;2035623;29;20217;-70
2021/06/05 01:07:49;;;;;;;4.40;4.10;;;;;23.80;100799.00;;;;2044035;29;20261;-71
2021/06/05 01:09:02;;;;;;;4.57;4.27;;;;;23.90;100787.00;;;;2037510;29;20209;-71
2021/06/05 01:10:13;;;;;;;5.15;4.80;;;;;23.80;100793.00;;;;2037124;29;20476;-71
2021/06/05 01:11:38;;;;;;;4.65;4.35;;;;;23.80;100801.00;;;;2040705;29;20299;-71
2021/06/05 01:13:18;;;;;;;4.35;4.05;;;;;23.80;100798.00;;;;2038434;29;20240;-70
2021/06/05 01:14:27;;;;;;;5.18;4.80;;;;;23.80;100801.00;;;;2029231;29;20371;-71
2021/06/05 01:15:33;;;;;;;4.85;4.55;;;;;23.80;100800.00;;;;2035180;29;20218;-70
2021/06/05 01:16:33;;;;;;;4.50;4.10;;;;;23.80;100805.00;;;;2034485;29;20731;-71
2021/06/05 01:17:36;;;;;;;4.90;4.60;;;;;23.80;100811.00;;;;2035839;29;20247;-71
2021/06/05 01:18:46;;;;;;;4.20;3.90;;;;;23.80;100817.00;;;;2039727;29;20235;-71
2021/06/05 01:19:54;;;;;;;5.00;4.70;;;;;23.80;100816.00;;;;2036632;29;20648;-70
2021/06/05 01:21:08;;;;;;;4.90;4.60;;;;;23.80;100811.00;;;;2040675;29;21022;-71
2021/06/05 01:22:39;;;;;;;4.70;4.40;;;;;23.80;100804.00;;;;2032902;29;20305;-71
2021/06/05 01:24:09;;;;;;;4.60;4.30;;;;;23.80;100804.00;;;;2037653;29;20220;-71
2021/06/05 01:25:33;;;;;;;4.90;4.60;;;;;23.80;100810.00;;;;2039067;29;20208;-71
2021/06/05 01:26:34;;;;;;;4.40;4.10;;;;;23.80;100808.00;;;;2029707;29;20211;-70
2021/06/05 01:27:37;;;;;;;4.40;4.10;;;;;23.80;100811.00;;;;2038465;29;20219;-71
2021/06/05 01:28:57;;;;;;;4.75;4.45;;;;;23.80;100808.00;;;;2035793;29;20308;-71
2021/06/05 01:30:00;;;;;;;4.88;4.57;;;;;23.80;100802.00;;;;2040154;29;20224;-71
2021/06/05 01:31:03;;;;;;;4.30;4.00;;;;;23.80;100792.00;;;;2035233;29;20210;-70
2021/06/05 01:32:05;;;;;;;4.88;4.47;;;;;23.80;100805.00;;;;2036604;29;20266;-70
2021/06/05 01:33:05;;;;;;;4.25;3.95;;;;;23.80;100798.00;;;;2036194;29;20229;-71
2021/06/05 01:34:05;;;;;;;4.33;3.97;;;;;23.80;100799.00;;;;2044164;29;20209;-71
2021/06/05 01:35:06;;;;;;;4.83;4.43;;;;;23.80;100803.00;;;;2044038;29;20223;-71
2021/06/05 01:36:07;;;;;;;5.00;4.70;;;;;23.80;100794.00;;;;2028313;29;20214;-71
2021/06/05 01:37:08;;;;;;;4.60;4.30;;;;;23.80;100800.00;;;;2028438;29;20689;-71
2021/06/05 01:38:09;;;;;;;4.90;4.50;;;;;23.80;100800.00;;;;2031550;29;20549;-70
2021/06/05 01:39:12;;;;;;;4.40;4.10;;;;;23.80;100801.00;;;;2036190;29;20217;-71
2021/06/05 01:40:13;;;;;;;4.20;3.90;;;;;23.80;100784.00;;;;2036194;29;20218;-71
2021/06/05 01:41:14;;;;;;;4.80;4.50;;;;;23.80;100803.00;;;;2028180;29;20319;-71
2021/06/05 01:42:25;;;;;;;4.00;3.80;;;;;23.80;100801.00;;;;2020650;29;20641;-72
2021/06/05 01:43:26;;;;;;;4.47;4.18;;;;;23.80;100800.00;;;;2029167;29;20250;-71
2021/06/05 01:44:27;;;;;;;4.43;4.10;;;;;23.80;100797.00;;;;2021379;29;20266;-71
2021/06/05 01:45:32;;;;;;;4.60;4.30;;;;;23.80;100797.00;;;;2027779;29;20306;-70
2021/06/05 01:46:41;;;;;;;5.28;4.88;;;;;23.80;100806.00;;;;2035847;29;20985;-70
2021/06/05 01:47:41;;;;;;;4.80;4.50;;;;;23.80;100794.00;;;;2027394;29;20246;-71
2021/06/05 01:48:42;;;;;;;4.70;4.40;;;;;23.80;100800.00;;;;2035980;29;20589;-71
2021/06/05 01:49:42;;;;;;;5.07;4.67;;;;;23.80;100796.00;;;;2043869;29;20216;-71
2021/06/05 01:50:43;;;;;;;4.97;4.57;;;;;23.80;100795.00;;;;2039155;29;20217;-71
2021/06/05 01:51:46;;;;;;;4.45;4.15;;;;;23.80;100795.00;;;;2030627;29;20743;-71
2021/06/05 01:52:46;;;;;;;4.75;4.45;;;;;23.80;100791.00;;;;2028018;29;20225;-71
2021/06/05 01:53:50;;;;;;;4.27;3.97;;;;;23.80;100797.00;;;;2027951;29;20214;-71
2021/06/05 01:55:23;;;;;;;4.30;4.00;;;;;23.80;100794.00;;;;2035952;29;20309;-71
2021/06/05 01:56:37;;;;;;;4.95;4.65;;;;;23.80;100783.00;;;;2037401;29;20295;-71
2021/06/05 01:57:38;;;;;;;4.82;4.53;;;;;23.80;100798.00;;;;2036829;29;20264;-71
2021/06/05 01:58:39;;;;;;;4.20;3.90;;;;;23.80;100793.00;;;;2036039;29;20205;-71
2021/06/05 01:59:39;;;;;;;4.80;4.40;;;;;23.80;100799.00;;;;2035510;29;20221;-71
2021/06/05 02:00:42;;;;;;;4.60;4.30;;;;;23.80;100801.00;;;;2034826;29;20214;-71
2021/06/05 02:01:43;;;;;;;4.80;4.40;;;;;23.80;100795.00;;;;2034763;29;20581;-71
2021/06/05 02:02:43;;;;;;;4.50;4.20;;;;;23.80;100798.00;;;;2034041;29;20281;-70
2021/06/05 02:03:44;;;;;;;4.30;4.00;;;;;23.80;100790.00;;;;2042569;29;20216;-71
2021/06/05 02:04:45;;;;;;;4.20;3.90;;;;;23.80;100788.00;;;;2039406;29;20221;-71
2021/06/05 02:05:46;;;;;;;4.80;4.50;;;;;23.80;100800.00;;;;2043893;29;20244;-71
2021/06/05 02:06:47;;;;;;;4.47;4.17;;;;;23.80;100802.00;;;;2044469;28;20217;-71
2021/06/05 02:07:52;;;;;;;4.93;4.63;;;;;23.80;100787.00;;;;2043831;29;20253;-71
2021/06/05 02:08:52;;;;;;;4.60;4.30;;;;;23.80;100790.00;;;;2035884;29;20882;-71
2021/06/05 02:09:52;;;;;;;4.80;4.50;;;;;23.80;100797.00;;;;2035639;29;20229;-71
2021/06/05 02:10:56;;;;;;;4.73;4.33;;;;;23.80;100803.00;;;;2043300;29;20797;-71
2021/06/05 02:12:20;;;;;;;4.40;4.10;;;;;23.80;100795.00;;;;2035206;29;20225;-71
2021/06/05 02:13:23;;;;;;;4.90;4.60;;;;;23.80;100788.00;;;;2030455;29;20228;-71
2021/06/05 02:14:33;;;;;;;4.93;4.63;;;;;23.80;100799.00;;;;2028723;29;20214;-71
2021/06/05 02:15:39;;;;;;;4.57;4.13;;;;;23.80;100787.00;;;;2036608;29;20767;-71
2021/06/05 02:16:46;;;;;;;4.32;4.05;;;;;23.80;100796.00;;;;2035947;29;20800;-70
2021/06/05 02:17:47;;;;;;;4.65;4.35;;;;;23.80;100797.00;;;;2038687;29;20292;-71
2021/06/05 02:18:49;;;;;;;4.60;4.30;;;;;23.80;100791.00;;;;2020218;29;20214;-71
2021/06/05 02:19:54;;;;;;;4.97;4.68;;;;;23.80;100797.00;;;;2029492;29;20265;-71
2021/06/05 02:21:05;;;;;;;4.65;4.25;;;;;23.80;100797.00;;;;2045753;28;20240;-71
2021/06/05 02:22:07;;;;;;;4.63;4.32;;;;;23.80;100801.00;;;;2039699;29;20220;-70
2021/06/05 02:23:12;;;;;;;4.75;4.45;;;;;23.80;100795.00;;;;2036720;29;20901;-70
2021/06/05 02:24:17;;;;;;;4.53;4.22;;;;;23.80;100805.00;;;;2036541;29;20578;-71
2021/06/05 02:25:19;;;;;;;4.78;4.47;;;;;23.80;100793.00;;;;2035968;29;20336;-71
2021/06/05 02:26:21;;;;;;;4.47;4.18;;;;;23.80;100788.00;;;;2035692;29;20296;-70
2021/06/05 02:27:22;;;;;;;5.00;4.70;;;;;23.80;100810.00;;;;2035427;29;20619;-71
2021/06/05 02:28:22;;;;;;;5.20;4.80;;;;;23.80;100810.00;;;;2027586;29;20218;-70
2021/06/05 02:29:24;;;;;;;4.90;4.60;;;;;23.80;100809.00;;;;2019903;29;20216;-71
2021/06/05 02:30:25;;;;;;;4.80;4.47;;;;;23.80;100798.00;;;;2028078;29;20725;-70
2021/06/05 02:31:26;;;;;;;4.30;4.00;;;;;23.80;100795.00;;;;2019957;29;20273;-70
2021/06/05 02:32:28;;;;;;;4.60;4.20;;;;;23.80;100804.00;;;;2031208;29;20221;-70
2021/06/05 02:33:28;;;;;;;4.93;4.63;;;;;23.80;100799.00;;;;2039376;29;20221;-70
2021/06/05 02:34:29;;;;;;;4.70;4.40;;;;;23.80;100788.00;;;;2043487;29;20224;-71
2021/06/05 02:35:34;;;;;;;4.63;4.33;;;;;23.80;100784.00;;;;2035326;29;20228;-70
2021/06/05 02:36:38;;;;;;;4.68;4.28;;;;;23.80;100800.00;;;;2035088;29;20295;-71
2021/06/05 02:37:38;;;;;;;5.10;4.70;;;;;23.80;100791.00;;;;2028270;29;20789;-70
2021/06/05 02:38:39;;;;;;;4.67;4.37;;;;;23.80;100785.00;;;;2035157;29;20221;-70
2021/06/05 02:39:40;;;;;;;5.00;4.70;;;;;23.80;100797.00;;;;2043186;29;20231;-70
2021/06/05 02:40:41;;;;;;;4.97;4.63;;;;;23.80;100794.00;;;;2034701;29;20467;-70
2021/06/05 02:41:45;;;;;;;5.10;4.80;;;;;23.80;100796.00;;;;2027109;29;20779;-69
2021/06/05 02:42:45;;;;;;;4.50;4.20;;;;;23.80;100781.00;;;;2020459;29;20211;-70
2021/06/05 02:43:46;;;;;;;4.80;4.50;;;;;23.80;100783.00;;;;2031134;29;20305;-70
2021/06/05 02:44:49;;;;;;;5.10;4.70;;;;;23.80;100793.00;;;;2031397;29;20206;-70
2021/06/05 02:46:00;;;;;;;5.10;4.70;;;;;23.80;100785.00;;;;2035754;29;20245;-71
2021/06/05 02:47:04;;;;;;;4.53;4.22;;;;;23.80;100795.00;;;;2037089;29;20265;-70
2021/06/05 02:48:05;;;;;;;5.10;4.70;;;;;23.80;100771.00;;;;2035613;29;20224;-71
2021/06/05 02:49:23;;;;;;;5.10;4.80;;;;;23.80;100796.00;;;;2027814;29;20229;-71
2021/06/05 02:50:23;;;;;;;4.75;4.45;;;;;23.80;100793.00;;;;2033091;29;20221;-70
2021/06/05 02:51:26;;;;;;;4.73;4.43;;;;;23.80;100797.00;;;;2027579;29;20606;-70
2021/06/05 02:52:28;;;;;;;4.88;4.57;;;;;23.80;100787.00;;;;2037560;29;20814;-70
2021/06/05 02:53:29;;;;;;;4.93;4.63;;;;;23.80;100796.00;;;;2043365;29;20560;-71
2021/06/05 02:54:29;;;;;;;4.60;4.30;;;;;23.80;100782.00;;;;2043522;29;20235;-71
2021/06/05 02:55:30;;;;;;;5.30;4.90;;;;;23.80;100793.00;;;;2043441;28;20230;-70
2021/06/05 02:56:30;;;;;;;4.57;4.27;;;;;23.80;100789.00;;;;2043479;28;20216;-70
2021/06/05 02:57:31;;;;;;;4.60;4.30;;;;;23.80;100786.00;;;;2043045;29;20456;-70
2021/06/05 02:58:31;;;;;;;4.60;4.30;;;;;23.80;100781.00;;;;2042747;29;20220;-70
2021/06/05 02:59:32;;;;;;;4.87;4.53;;;;;23.80;100776.00;;;;2042851;29;20940;-71
2021/06/05 03:00:45;;;;;;;4.97;4.67;;;;;23.80;100784.00;;;;2035119;29;21186;-70
2021/06/05 03:01:46;;;;;;;5.25;4.95;;;;;23.80;100787.00;;;;2042559;29;20227;-70
2021/06/05 03:02:46;;;;;;;4.70;4.40;;;;;23.80;100791.00;;;;2043596;28;20217;-70
2021/06/05 03:03:46;;;;;;;5.17;4.87;;;;;23.80;100788.00;;;;2042931;29;20224;-70
2021/06/05 03:04:47;;;;;;;5.03;4.63;;;;;23.80;100785.00;;;;2042462;29;20220;-70
2021/06/05 03:05:49;;;;;;;4.77;4.47;;;;;23.80;100789.00;;;;2044154;28;20643;-70
2021/06/05 03:06:50;;;;;;;5.53;5.15;;;;;23.80;100783.00;;;;2040325;28;20229;-70
2021/06/05 03:07:51;;;;;;;5.40;5.00;;;;;23.80;100790.00;;;;2044101;28;20212;-70
2021/06/05 03:08:51;;;;;;;4.70;4.40;;;;;23.80;100787.00;;;;2044000;28;20226;-70
2021/06/05 03:09:51;;;;;;;4.63;4.33;;;;;23.80;100789.00;;;;2043976;28;20228;-70
2021/06/05 03:10:52;;;;;;;4.73;4.43;;;;;23.80;100780.00;;;;2043544;28;20220;-70
2021/06/05 03:11:52;;;;;;;4.30;4.00;;;;;23.80;100784.00;;;;2043209;29;20322;-70
2021/06/05 03:12:52;;;;;;;4.70;4.40;;;;;23.80;100784.00;;;;2043285;28;20220;-70
2021/06/05 03:13:53;;;;;;;5.10;4.70;;;;;23.80;100778.00;;;;2043324;28;20275;-70
2021/06/05 03:14:53;;;;;;;5.50;5.10;;;;;23.80;100778.00;;;;2042862;29;20317;-71
2021/06/05 03:15:54;;;;;;;4.37;4.07;;;;;23.80;100778.00;;;;2034820;29;20224;-70
2021/06/05 03:16:54;;;;;;;4.77;4.47;;;;;23.80;100778.00;;;;2042800;29;20224;-70
2021/06/05 03:17:55;;;;;;;4.70;4.40;;;;;23.80;100779.00;;;;2043371;28;20224;-70
2021/06/05 03:18:55;;;;;;;4.50;4.20;;;;;23.80;100782.00;;;;2042728;29;20240;-70
2021/06/05 03:19:56;;;;;;;4.80;4.50;;;;;23.80;100777.00;;;;2044125;29;20758;-70
2021/06/05 03:20:57;;;;;;;4.97;4.67;;;;;23.80;100770.00;;;;2045280;28;20581;-70
2021/06/05 03:21:57;;;;;;;4.97;4.57;;;;;23.80;100781.00;;;;2044996;29;20217;-70
2021/06/05 03:22:57;;;;;;;4.37;4.07;;;;;23.80;100780.00;;;;2043229;29;20217;-70
2021/06/05 03:23:58;;;;;;;4.80;4.50;;;;;23.80;100782.00;;;;2043737;28;20655;-70
2021/06/05 03:24:58;;;;;;;4.50;4.20;;;;;23.80;100779.00;;;;2043920;28;20212;-71
2021/06/05 03:25:59;;;;;;;4.93;4.63;;;;;23.80;100775.00;;;;2043852;28;20213;-70
2021/06/05 03:27:00;;;;;;;5.00;4.70;;;;;23.80;100783.00;;;;2035365;29;20267;-70
2021/06/05 03:28:01;;;;;;;4.85;4.55;;;;;23.80;100774.00;;;;2035511;29;20213;-70
2021/06/05 03:29:01;;;;;;;4.60;4.30;;;;;23.80;100782.00;;;;2035048;29;20243;-70
2021/06/05 03:30:03;;;;;;;4.73;4.43;;;;;23.80;100774.00;;;;2042658;29;20238;-70
2021/06/05 03:31:03;;;;;;;4.35;3.95;;;;;23.80;100780.00;;;;2043236;28;20208;-70
2021/06/05 03:32:04;;;;;;;4.97;4.67;;;;;23.80;100772.00;;;;2042652;29;20603;-70
2021/06/05 03:33:05;;;;;;;5.17;4.77;;;;;23.80;100778.00;;;;2042673;29;20655;-71
2021/06/05 03:34:05;;;;;;;4.63;4.33;;;;;23.80;100776.00;;;;2042389;28;20589;-70
2021/06/05 03:35:06;;;;;;;5.23;4.83;;;;;23.80;100779.00;;;;2043774;28;20301;-70
2021/06/05 03:36:07;;;;;;;4.40;4.10;;;;;23.80;100775.00;;;;2043086;29;20256;-70
2021/06/05 03:37:07;;;;;;;4.50;4.20;;;;;23.80;100778.00;;;;2035299;29;20530;-70
2021/06/05 03:38:08;;;;;;;4.70;4.40;;;;;23.80;100771.00;;;;2035378;29;20240;-71
2021/06/05 03:39:08;;;;;;;4.80;4.47;;;;;23.80;100772.00;;;;2027458;29;20457;-69
2021/06/05 03:40:10;;;;;;;4.67;4.37;;;;;23.80;100776.00;;;;2043168;29;20267;-71
2021/06/05 03:41:12;;;;;;;4.40;4.10;;;;;23.80;100776.00;;;;2035092;29;20236;-70
2021/06/05 03:42:12;;;;;;;4.90;4.60;;;;;23.80;100772.00;;;;2035536;29;20213;-70
2021/06/05 03:43:13;;;;;;;4.70;4.40;;;;;23.80;100771.00;;;;2043823;28;20252;-70
2021/06/05 03:44:13;;;;;;;4.57;4.27;;;;;23.80;100775.00;;;;2043546;28;20212;-70
2021/06/05 03:45:14;;;;;;;4.23;4.00;;;;;23.80;100776.00;;;;2043268;28;20220;-70
2021/06/05 03:46:14;;;;;;;4.43;4.13;;;;;23.80;100773.00;;;;2043549;28;21091;-70
2021/06/05 03:47:19;;;;;;;4.63;4.30;;;;;23.80;100769.00;;;;2042632;29;20623;-70
2021/06/05 03:48:19;;;;;;;4.50;4.20;;;;;23.80;100762.00;;;;2042655;29;20216;-70
2021/06/05 03:49:19;;;;;;;4.20;3.90;;;;;23.80;100773.00;;;;2034708;29;20300;-71
2021/06/05 03:50:24;;;;;;;4.47;4.17;;;;;23.80;100766.00;;;;2037617;29;20268;-70
2021/06/05 03:51:25;;;;;;;4.53;4.22;;;;;23.80;100769.00;;;;2043164;29;20224;-70
2021/06/05 03:52:25;;;;;;;4.53;4.23;;;;;23.80;100763.00;;;;2027681;29;20308;-70
2021/06/05 03:53:26;;;;;;;5.00;4.70;;;;;23.80;100760.00;;;;2034662;29;20268;-70
2021/06/05 03:54:26;;;;;;;4.17;3.90;;;;;23.80;100769.00;;;;2042534;29;20217;-71
2021/06/05 03:55:27;;;;;;;4.93;4.63;;;;;23.80;100767.00;;;;2042314;29;20984;-70
2021/06/05 03:56:27;;;;;;;4.97;4.60;;;;;23.80;100762.00;;;;2043221;28;20249;-71
2021/06/05 03:57:27;;;;;;;4.80;4.40;;;;;23.80;100768.00;;;;2043411;28;20576;-70
2021/06/05 03:58:37;;;;;;;4.67;4.37;;;;;23.80;100762.00;;;;2042871;29;20221;-70
2021/06/05 03:59:37;;;;;;;4.53;4.22;;;;;23.80;100767.00;;;;2036351;29;20969;-71
2021/06/05 04:00:42;;;;;;;4.73;4.33;;;;;23.80;100768.00;;;;2043128;29;20216;-70
2021/06/05 04:01:43;;;;;;;4.25;3.95;;;;;23.80;100764.00;;;;2035271;29;20224;-70
2021/06/05 04:02:43;;;;;;;4.80;4.50;;;;;23.80;100769.00;;;;2038873;29;20221;-71
2021/06/05 04:03:43;;;;;;;4.47;4.17;;;;;23.80;100766.00;;;;2043098;28;20344;-70
2021/06/05 04:04:44;;;;;;;4.60;4.30;;;;;23.80;100767.00;;;;2042423;29;20279;-71
2021/06/05 04:05:44;;;;;;;4.80;4.50;;;;;23.80;100770.00;;;;2034743;29;20222;-70
2021/06/05 04:06:44;;;;;;;4.83;4.53;;;;;23.80;100768.00;;;;2042488;28;20244;-71
2021/06/05 04:07:45;;;;;;;4.87;4.57;;;;;23.80;100759.00;;;;2043694;28;20224;-71
2021/06/05 04:08:45;;;;;;;4.50;4.20;;;;;23.80;100763.00;;;;2043662;28;20689;-71
2021/06/05 04:09:46;;;;;;;4.37;4.07;;;;;23.80;100772.00;;;;2043567;28;20220;-71
2021/06/05 04:10:46;;;;;;;4.40;4.10;;;;;23.80;100764.00;;;;2043603;28;20276;-70
2021/06/05 04:11:46;;;;;;;4.57;4.27;;;;;23.80;100764.00;;;;2043268;28;20212;-71
2021/06/05 04:12:47;;;;;;;4.60;4.30;;;;;23.80;100765.00;;;;2043778;28;20244;-71
2021/06/05 04:13:47;;;;;;;4.10;3.87;;;;;23.80;100768.00;;;;2042890;28;20215;-71
2021/06/05 04:14:47;;;;;;;4.83;4.43;;;;;23.80;100760.00;;;;2043086;28;20221;-71
2021/06/05 04:15:48;;;;;;;4.60;4.30;;;;;23.80;100772.00;;;;2043079;28;20256;-70
2021/06/05 04:16:48;;;;;;;4.90;4.50;;;;;23.80;100774.00;;;;2034484;29;20252;-71
2021/06/05 04:17:48;;;;;;;4.33;4.03;;;;;23.80;100769.00;;;;2034687;29;20229;-71
2021/06/05 04:18:49;;;;;;;4.60;4.30;;;;;23.80;100750.00;;;;2043174;29;20315;-70
2021/06/05 04:19:50;;;;;;;4.67;4.37;;;;;23.80;100772.00;;;;2036096;29;20257;-71
2021/06/05 04:20:50;;;;;;;4.50;4.20;;;;;23.80;100764.00;;;;2035045;29;20454;-71
2021/06/05 04:21:51;;;;;;;4.30;3.97;;;;;23.80;100774.00;;;;2043748;28;20227;-71
2021/06/05 04:22:52;;;;;;;4.20;3.90;;;;;23.80;100776.00;;;;2044447;29;20226;-71
2021/06/05 04:23:52;;;;;;;4.73;4.43;;;;;23.80;100770.00;;;;2034391;29;20498;-71
2021/06/05 04:24:53;;;;;;;4.20;3.90;;;;;23.80;100774.00;;;;2042481;29;21011;-71
2021/06/05 04:25:53;;;;;;;4.90;4.60;;;;;23.80;100751.00;;;;2043316;28;20235;-71
2021/06/05 04:26:53;;;;;;;5.07;4.77;;;;;23.80;100770.00;;;;2044353;29;20798;-71
2021/06/05 04:27:54;;;;;;;4.40;4.10;;;;;23.80;100767.00;;;;2036817;29;20225;-71
2021/06/05 04:28:54;;;;;;;4.80;4.40;;;;;23.80;100766.00;;;;2044562;29;20228;-70
2021/06/05 04:29:55;;;;;;;4.83;4.53;;;;;23.80;100768.00;;;;2045288;28;20307;-71
2021/06/05 04:30:55;;;;;;;4.83;4.53;;;;;23.80;100759.00;;;;2044576;29;20611;-71
2021/06/05 04:31:55;;;;;;;5.10;4.60;;;;;23.80;100759.00;;;;2036239;29;20221;-71
2021/06/05 04:32:56;;;;;;;4.40;4.10;;;;;23.80;100767.00;;;;2044072;29;20652;-70
2021/06/05 04:33:56;;;;;;;5.27;4.87;;;;;23.80;100766.00;;;;2044814;28;20564;-71
2021/06/05 04:34:57;;;;;;;4.40;4.10;;;;;23.80;100768.00;;;;2044131;28;20223;-70
2021/06/05 04:35:59;;;;;;;4.57;4.20;;;;;23.80;100761.00;;;;2043918;29;20232;-70
2021/06/05 04:36:59;;;;;;;4.20;3.90;;;;;23.80;100771.00;;;;2043950;29;20224;-71
2021/06/05 04:37:59;;;;;;;4.67;4.37;;;;;23.80;100772.00;;;;2044885;28;20228;-70
2021/06/05 04:39:00;;;;;;;5.13;4.47;;;;;23.80;100763.00;;;;2044471;29;20562;-70
2021/06/05 04:40:00;;;;;;;4.40;4.10;;;;;23.80;100761.00;;;;2036267;29;20604;-71
2021/06/05 04:41:01;;;;;;;4.80;4.50;;;;;23.80;100761.00;;;;2044197;29;20326;-70
2021/06/05 04:42:02;;;;;;;4.27;3.90;;;;;23.80;100759.00;;;;2045113;28;20283;-71
2021/06/05 04:43:02;;;;;;;4.28;3.97;;;;;23.80;100761.00;;;;2044585;29;20614;-71
2021/06/05 04:44:03;;;;;;;4.97;4.67;;;;;23.80;100760.00;;;;2036090;29;20220;-71
2021/06/05 04:45:04;;;;;;;4.60;4.30;;;;;23.80;100752.00;;;;2044058;29;20224;-71
2021/06/05 04:46:05;;;;;;;4.40;4.10;;;;;23.80;100760.00;;;;2043850;29;20271;-70
2021/06/05 04:47:05;;;;;;;4.97;4.47;;;;;23.80;100753.00;;;;2043919;29;20319;-70
2021/06/05 04:48:06;;;;;;;4.70;4.40;;;;;23.80;100765.00;;;;2044523;28;20209;-70
2021/06/05 04:49:08;;;;;;;4.97;4.57;;;;;23.80;100758.00;;;;2044540;28;20276;-70
2021/06/05 04:50:09;;;;;;;4.97;4.65;;;;;23.80;100764.00;;;;2048109;29;20452;-70
2021/06/05 04:51:10;;;;;;;4.57;4.28;;;;;23.80;100754.00;;;;2038686;29;20296;-71
2021/06/05 04:52:11;;;;;;;4.40;4.10;;;;;23.80;100753.00;;;;2029001;29;20209;-71
2021/06/05 04:53:11;;;;;;;4.70;4.40;;;;;23.80;100751.00;;;;2045589;29;20252;-71
2021/06/05 04:54:11;;;;;;;5.00;4.60;;;;;23.80;100751.00;;;;2046770;28;20263;-71
2021/06/05 04:55:12;;;;;;;4.57;4.27;;;;;23.80;100751.00;;;;2043663;29;20236;-70
2021/06/05 04:56:12;;;;;;;4.60;4.30;;;;;23.80;100754.00;;;;2036333;29;20221;-71
2021/06/05 04:57:13;;;;;;;4.40;4.10;;;;;23.80;100750.00;;;;2043197;29;20216;-71
2021/06/05 04:58:13;;;;;;;4.90;4.50;;;;;23.80;100757.00;;;;2044418;29;20212;-71
2021/06/05 04:59:14;;;;;;;4.70;4.30;;;;;23.80;100747.00;;;;2044556;28;20216;-71
2021/06/05 05:00:17;;;;;;;5.13;4.73;;;;;23.80;100753.00;;;;2043275;29;20216;-71
2021/06/05 05:01:18;;;;;;;4.60;4.30;;;;;23.80;100748.00;;;;2028296;29;20266;-71
2021/06/05 05:02:18;;;;;;;4.28;3.97;;;;;23.80;100757.00;;;;2028804;29;20365;-70
2021/06/05 05:03:21;;;;;;;4.30;4.00;;;;;23.80;100756.00;;;;2036663;29;20717;-70
2021/06/05 05:04:21;;;;;;;4.43;4.13;;;;;23.80;100754.00;;;;2036518;29;20251;-70
2021/06/05 05:05:21;;;;;;;4.50;4.20;;;;;23.80;100755.00;;;;2036614;29;20246;-70
2021/06/05 05:06:22;;;;;;;4.97;4.60;;;;;23.80;100772.00;;;;2044836;28;20228;-71
2021/06/05 05:07:22;;;;;;;4.97;4.57;;;;;23.80;100762.00;;;;2044402;28;20756;-71
2021/06/05 05:08:22;;;;;;;4.83;4.53;;;;;23.80;100768.00;;;;2043893;28;20311;-71